Time;durP1;ratioP1;P1;durP2;ratioP2;P2;SDS_P1;SDS_P2;PMS_P1;PMS_P2;Temp;Humidity;BMP_temperature;BMP_pressure;BME280_temperature;BME280_humidity;BME280_pressure;Samples;Min_cycle;Max_cycle;Signal;HPM_P1;HPM_P2
2021/12/29 00:00:59;;;;;;;1.70;1.20;;;9.20;98.20;;;;;;5010562;28;20967;-72
2021/12/29 00:03:26;;;;;;;1.67;1.23;;;9.30;98.20;;;;;;5030969;28;20895;-72
2021/12/29 00:05:55;;;;;;;1.60;1.10;;;9.30;98.20;;;;;;5011970;28;20530;-71
2021/12/29 00:08:22;;;;;;;1.60;1.13;;;9.20;98.20;;;;;;5027245;28;20680;-71
2021/12/29 00:10:54;;;;;;;1.60;1.20;;;9.20;98.20;;;;;;5013137;28;20556;-70
2021/12/29 00:13:21;;;;;;;1.67;1.20;;;9.20;98.20;;;;;;5025637;28;20475;-72
2021/12/29 00:15:48;;;;;;;1.67;1.20;;;9.20;98.20;;;;;;5014056;28;20471;-71
2021/12/29 00:18:15;;;;;;;1.67;1.20;;;9.20;98.20;;;;;;5027569;28;20479;-73
2021/12/29 00:20:42;;;;;;;1.70;1.20;;;9.20;98.20;;;;;;5021172;28;20509;-72
2021/12/29 00:23:10;;;;;;;1.70;1.30;;;9.20;98.20;;;;;;5017914;28;20491;-72
2021/12/29 00:25:37;;;;;;;1.70;1.30;;;9.20;98.20;;;;;;5020669;28;20474;-72
2021/12/29 00:28:05;;;;;;;1.60;1.20;;;9.20;98.20;;;;;;5022802;28;20490;-72
2021/12/29 00:30:32;;;;;;;1.60;1.20;;;9.20;98.20;;;;;;5022028;28;20501;-71
2021/12/29 00:33:02;;;;;;;1.60;1.20;;;9.30;98.20;;;;;;5029927;28;20522;-72
2021/12/29 00:35:30;;;;;;;1.67;1.30;;;9.30;98.20;;;;;;5025862;28;20526;-71
2021/12/29 00:37:59;;;;;;;1.67;1.17;;;9.30;98.20;;;;;;5003518;28;20574;-72
2021/12/29 00:40:27;;;;;;;1.70;1.30;;;9.30;98.20;;;;;;5023829;28;20487;-71
2021/12/29 00:42:54;;;;;;;1.70;1.30;;;9.30;98.20;;;;;;5045896;28;20571;-72
2021/12/29 00:45:21;;;;;;;1.60;1.10;;;9.30;98.20;;;;;;5042096;28;20958;-71
2021/12/29 00:47:50;;;;;;;1.70;1.30;;;9.30;98.20;;;;;;5028784;28;21127;-71
2021/12/29 00:50:18;;;;;;;1.63;1.20;;;9.30;98.20;;;;;;5016049;28;20524;-71
2021/12/29 00:52:46;;;;;;;1.70;1.20;;;9.30;98.20;;;;;;5017691;28;20483;-71
2021/12/29 00:55:13;;;;;;;1.60;1.20;;;9.30;98.20;;;;;;5019646;28;20468;-72
2021/12/29 00:57:42;;;;;;;1.60;1.20;;;9.30;98.20;;;;;;5025118;28;20952;-72
2021/12/29 01:00:13;;;;;;;1.60;1.10;;;9.30;98.20;;;;;;5021622;28;20498;-72
2021/12/29 01:02:40;;;;;;;1.60;1.20;;;9.30;98.20;;;;;;5023910;28;20493;-71
2021/12/29 01:05:08;;;;;;;1.60;1.20;;;9.30;98.20;;;;;;5024247;28;20467;-73
2021/12/29 01:07:35;;;;;;;1.63;1.20;;;9.20;98.20;;;;;;5031870;28;20568;-73
2021/12/29 01:10:03;;;;;;;1.70;1.30;;;9.30;98.20;;;;;;5027116;28;21003;-72
2021/12/29 01:12:30;;;;;;;1.63;1.20;;;9.30;98.20;;;;;;5028451;28;20479;-72
2021/12/29 01:15:01;;;;;;;1.70;1.30;;;9.20;98.20;;;;;;5028209;28;20463;-72
2021/12/29 01:17:28;;;;;;;1.60;1.20;;;9.20;98.20;;;;;;5028189;28;21280;-73
2021/12/29 01:19:56;;;;;;;1.63;1.20;;;9.30;98.20;;;;;;5029985;28;20494;-71
2021/12/29 01:22:23;;;;;;;1.63;1.10;;;9.30;98.20;;;;;;5021851;28;20474;-70
2021/12/29 01:24:50;;;;;;;1.70;1.30;;;9.30;98.20;;;;;;5026958;28;20938;-70
2021/12/29 01:27:18;;;;;;;1.60;1.20;;;9.20;98.20;;;;;;5028929;28;20505;-70
2021/12/29 01:29:46;;;;;;;1.63;1.10;;;9.30;98.20;;;;;;5031400;28;20495;-71
2021/12/29 01:32:14;;;;;;;1.67;1.20;;;9.20;98.20;;;;;;5020393;28;20474;-71
2021/12/29 01:34:41;;;;;;;1.70;1.30;;;9.20;98.20;;;;;;5029498;28;20764;-70
2021/12/29 01:37:09;;;;;;;1.70;1.30;;;9.20;98.20;;;;;;5025279;28;20991;-70
2021/12/29 01:39:36;;;;;;;1.70;1.27;;;9.20;98.20;;;;;;5028148;28;20694;-70
2021/12/29 01:42:04;;;;;;;1.70;1.30;;;9.20;98.20;;;;;;5024067;28;20778;-70
2021/12/29 01:44:31;;;;;;;1.70;1.20;;;9.20;98.20;;;;;;5028787;28;20461;-71
2021/12/29 01:46:59;;;;;;;1.70;1.30;;;9.20;98.20;;;;;;5023897;28;20470;-71
2021/12/29 01:49:27;;;;;;;1.70;1.30;;;9.20;98.20;;;;;;5028769;28;20463;-71
2021/12/29 01:52:03;;;;;;;1.70;1.30;;;9.20;98.20;;;;;;5020456;28;20495;-71
2021/12/29 01:54:34;;;;;;;1.70;1.30;;;9.20;98.20;;;;;;5025835;28;20857;-71
2021/12/29 01:57:02;;;;;;;1.60;1.20;;;9.20;98.20;;;;;;5023441;28;20494;-71
2021/12/29 01:59:29;;;;;;;1.60;1.10;;;9.20;98.20;;;;;;5023915;28;20468;-71
2021/12/29 02:01:56;;;;;;;1.63;1.20;;;9.20;98.20;;;;;;5020280;28;20486;-71
2021/12/29 02:04:24;;;;;;;1.67;1.20;;;9.30;98.20;;;;;;5023758;28;20471;-71
2021/12/29 02:06:53;;;;;;;1.60;1.20;;;9.20;98.20;;;;;;5019358;28;20797;-71
2021/12/29 02:09:20;;;;;;;1.70;1.20;;;9.30;98.20;;;;;;5024409;28;20471;-71
2021/12/29 02:11:47;;;;;;;1.70;1.20;;;9.30;98.20;;;;;;5021818;28;20489;-71
2021/12/29 02:14:14;;;;;;;1.67;1.20;;;9.30;98.20;;;;;;5031459;28;20857;-71
2021/12/29 02:16:41;;;;;;;1.60;1.20;;;9.20;98.20;;;;;;5017313;28;21081;-71
2021/12/29 02:19:12;;;;;;;1.70;1.30;;;9.30;98.20;;;;;;5030414;28;20463;-71
2021/12/29 02:21:43;;;;;;;2.17;1.97;;;9.30;98.20;;;;;;5021916;28;21071;-71
2021/12/29 02:24:23;;;;;;;1.70;1.27;;;9.30;98.20;;;;;;5032609;28;20509;-71
2021/12/29 02:26:52;;;;;;;1.70;1.30;;;9.30;98.20;;;;;;5020653;28;20493;-71
2021/12/29 02:29:20;;;;;;;1.70;1.30;;;9.30;98.20;;;;;;5031865;28;20464;-71
2021/12/29 02:31:47;;;;;;;1.63;1.17;;;9.30;98.20;;;;;;5021537;28;20493;-71
2021/12/29 02:34:15;;;;;;;1.70;1.30;;;9.30;98.20;;;;;;5028994;28;20492;-71
2021/12/29 02:36:46;;;;;;;1.63;1.20;;;9.30;98.20;;;;;;5026034;28;20488;-70
2021/12/29 02:39:16;;;;;;;1.70;1.30;;;9.30;98.20;;;;;;5032445;28;20459;-70
2021/12/29 02:41:46;;;;;;;1.70;1.33;;;9.30;98.20;;;;;;5019186;28;20928;-71
2021/12/29 02:44:25;;;;;;;1.60;1.20;;;9.20;98.20;;;;;;5028012;28;20525;-71
2021/12/29 02:46:52;;;;;;;1.67;1.20;;;9.20;98.20;;;;;;5010483;28;20490;-71
2021/12/29 02:49:19;;;;;;;1.70;1.30;;;9.30;98.20;;;;;;5031140;28;20559;-71
2021/12/29 02:51:48;;;;;;;1.63;1.20;;;9.20;98.20;;;;;;5018965;28;20505;-71
2021/12/29 02:54:16;;;;;;;1.60;1.10;;;9.20;98.20;;;;;;5025962;28;20484;-71
2021/12/29 02:56:43;;;;;;;1.63;1.20;;;9.20;98.20;;;;;;5022059;28;20548;-71
2021/12/29 02:59:10;;;;;;;1.60;1.20;;;9.20;98.20;;;;;;5033151;28;20460;-70
2021/12/29 03:01:37;;;;;;;1.70;1.30;;;9.20;98.20;;;;;;5017078;28;20487;-71
2021/12/29 03:04:06;;;;;;;1.60;1.20;;;9.20;98.20;;;;;;5031340;28;20543;-71
2021/12/29 03:06:34;;;;;;;1.70;1.20;;;9.20;98.20;;;;;;5018478;28;20575;-71
2021/12/29 03:09:03;;;;;;;1.60;1.20;;;9.20;98.20;;;;;;5031134;28;20463;-70
2021/12/29 03:11:30;;;;;;;1.60;1.20;;;9.20;98.20;;;;;;5019138;28;20835;-71
2021/12/29 03:13:57;;;;;;;1.70;1.20;;;9.20;98.20;;;;;;5032534;28;20482;-71
2021/12/29 03:16:24;;;;;;;1.63;1.20;;;9.20;98.20;;;;;;5032706;28;20474;-71
2021/12/29 03:18:51;;;;;;;1.60;1.20;;;9.20;98.20;;;;;;5028035;28;20474;-70
2021/12/29 03:21:18;;;;;;;1.67;1.23;;;9.20;98.20;;;;;;5018095;28;20539;-71
2021/12/29 03:23:45;;;;;;;1.60;1.20;;;9.20;98.20;;;;;;5033407;28;20459;-71
2021/12/29 03:26:13;;;;;;;1.63;1.23;;;9.20;98.20;;;;;;5008195;28;21687;-70
2021/12/29 03:28:40;;;;;;;1.70;1.30;;;9.20;98.20;;;;;;5032318;28;21011;-70
2021/12/29 03:31:11;;;;;;;1.63;1.20;;;9.20;98.20;;;;;;5014010;28;20553;-71
2021/12/29 03:33:38;;;;;;;1.70;1.30;;;9.20;98.20;;;;;;5033825;28;21098;-71
2021/12/29 03:36:06;;;;;;;1.60;1.20;;;9.20;98.20;;;;;;5010530;28;20463;-71
2021/12/29 03:38:36;;;;;;;1.67;1.23;;;9.20;98.20;;;;;;5011752;28;20543;-70
2021/12/29 03:41:05;;;;;;;1.67;1.30;;;9.20;98.20;;;;;;5011848;28;20558;-70
2021/12/29 03:43:33;;;;;;;1.70;1.30;;;9.20;98.20;;;;;;5036188;28;20459;-71
2021/12/29 03:46:01;;;;;;;1.63;1.20;;;9.20;98.20;;;;;;5013240;28;20459;-71
2021/12/29 03:48:30;;;;;;;2.37;2.07;;;9.20;98.20;;;;;;5052701;28;20463;-70
2021/12/29 03:50:58;;;;;;;1.67;1.20;;;9.20;98.20;;;;;;5030587;28;20479;-71
2021/12/29 03:53:25;;;;;;;1.67;1.30;;;9.20;98.20;;;;;;5052647;28;20532;-71
2021/12/29 03:55:53;;;;;;;1.67;1.20;;;9.20;98.20;;;;;;5030175;28;20470;-71
2021/12/29 03:58:22;;;;;;;1.67;1.20;;;9.20;98.20;;;;;;5056504;28;20542;-70
2021/12/29 04:00:53;;;;;;;1.70;1.30;;;9.20;98.20;;;;;;5034271;28;20565;-71
2021/12/29 04:03:20;;;;;;;1.60;1.20;;;9.20;98.20;;;;;;5042826;28;20462;-70
2021/12/29 04:05:48;;;;;;;1.70;1.30;;;9.20;98.20;;;;;;5041443;28;20861;-71
2021/12/29 04:08:15;;;;;;;1.70;1.30;;;9.10;98.20;;;;;;5060769;28;20471;-71
2021/12/29 04:10:42;;;;;;;1.70;1.30;;;9.20;98.20;;;;;;5045911;28;20508;-70
2021/12/29 04:13:09;;;;;;;1.60;1.20;;;9.20;98.20;;;;;;5051028;28;20487;-71
2021/12/29 04:15:37;;;;;;;1.60;1.20;;;9.10;98.20;;;;;;5045700;28;20485;-70
2021/12/29 04:18:15;;;;;;;1.70;1.30;;;9.20;98.20;;;;;;5045303;28;20488;-70
2021/12/29 04:20:55;;;;;;;1.67;1.20;;;9.10;98.20;;;;;;5047644;28;20861;-71
2021/12/29 04:23:25;;;;;;;1.60;1.20;;;9.10;98.20;;;;;;5031602;28;20481;-71
2021/12/29 04:25:54;;;;;;;1.70;1.47;;;9.10;98.20;;;;;;5031751;28;20461;-71
2021/12/29 04:28:23;;;;;;;1.80;1.50;;;9.10;98.20;;;;;;5057740;28;20495;-70
2021/12/29 04:30:52;;;;;;;1.70;1.40;;;9.10;98.20;;;;;;5038613;28;20482;-71
2021/12/29 04:33:20;;;;;;;1.60;1.10;;;9.10;98.20;;;;;;5059847;28;20458;-70
2021/12/29 04:35:48;;;;;;;1.60;1.13;;;9.10;98.20;;;;;;5039589;28;20819;-71
2021/12/29 04:38:15;;;;;;;1.70;1.30;;;9.10;98.20;;;;;;5042792;28;20557;-71
2021/12/29 04:40:43;;;;;;;1.70;1.30;;;9.10;98.20;;;;;;5048127;28;20486;-71
2021/12/29 04:43:10;;;;;;;1.70;1.20;;;9.10;98.20;;;;;;5045428;28;20481;-71
2021/12/29 04:45:37;;;;;;;1.63;1.20;;;9.10;98.20;;;;;;5041748;28;20563;-71
2021/12/29 04:48:11;;;;;;;1.70;1.20;;;9.10;98.20;;;;;;5049859;28;20486;-70
2021/12/29 04:50:40;;;;;;;2.60;2.40;;;9.10;98.20;;;;;;5047082;28;20482;-71
2021/12/29 04:53:09;;;;;;;1.70;1.33;;;9.10;98.20;;;;;;5046572;28;20496;-71
2021/12/29 04:55:36;;;;;;;1.70;1.30;;;9.10;98.20;;;;;;5043181;28;20912;-70
2021/12/29 04:58:04;;;;;;;1.60;1.10;;;9.00;98.20;;;;;;5050527;28;20488;-70
2021/12/29 05:00:32;;;;;;;1.67;1.20;;;9.00;98.20;;;;;;5044939;28;20478;-71
2021/12/29 05:02:59;;;;;;;1.60;1.20;;;9.00;98.20;;;;;;5031814;28;20573;-71
2021/12/29 05:05:40;;;;;;;1.63;1.20;;;9.00;98.20;;;;;;5044325;28;20511;-71
2021/12/29 05:08:28;;;;;;;1.67;1.20;;;9.00;98.20;;;;;;5048781;28;20565;-70
2021/12/29 05:10:57;;;;;;;1.70;1.30;;;9.00;98.20;;;;;;5036101;28;20493;-71
2021/12/29 05:13:25;;;;;;;1.67;1.20;;;9.00;98.20;;;;;;5057141;28;20454;-71
2021/12/29 05:15:52;;;;;;;1.60;1.10;;;9.00;98.20;;;;;;5035612;28;20462;-72
2021/12/29 05:18:19;;;;;;;1.60;1.10;;;9.00;98.20;;;;;;5058648;28;20467;-71
2021/12/29 05:20:46;;;;;;;1.67;1.30;;;9.00;98.20;;;;;;5044556;28;20549;-71
2021/12/29 05:23:14;;;;;;;1.60;1.20;;;9.00;98.20;;;;;;5033598;28;20582;-71
2021/12/29 05:25:41;;;;;;;1.60;1.20;;;9.00;98.20;;;;;;5045610;28;20541;-71
2021/12/29 05:28:08;;;;;;;1.70;1.30;;;9.00;98.20;;;;;;5031354;28;20478;-71
2021/12/29 05:30:36;;;;;;;1.60;1.20;;;9.00;98.20;;;;;;5047772;28;20863;-71
2021/12/29 05:33:04;;;;;;;1.60;1.20;;;9.00;98.20;;;;;;5032204;28;20482;-71
2021/12/29 05:35:31;;;;;;;1.60;1.10;;;9.00;98.20;;;;;;5046065;28;20486;-71
2021/12/29 05:37:58;;;;;;;1.60;1.20;;;9.00;98.20;;;;;;5032184;28;20474;-73
2021/12/29 05:40:27;;;;;;;1.60;1.20;;;9.00;98.20;;;;;;5047455;28;20494;-72
2021/12/29 05:42:54;;;;;;;1.60;1.20;;;9.00;98.20;;;;;;5029086;28;20486;-71
2021/12/29 05:45:21;;;;;;;1.70;1.30;;;9.00;98.20;;;;;;5040319;28;20458;-72
2021/12/29 05:47:49;;;;;;;1.60;1.30;;;9.00;98.20;;;;;;5048438;28;20484;-71
2021/12/29 05:50:18;;;;;;;1.67;1.30;;;9.00;98.20;;;;;;5042708;28;20919;-71
2021/12/29 05:52:45;;;;;;;1.67;1.20;;;9.00;98.20;;;;;;5030573;28;20854;-71
2021/12/29 05:55:13;;;;;;;1.70;1.30;;;9.00;98.20;;;;;;5041977;28;20490;-71
2021/12/29 05:57:41;;;;;;;1.63;1.20;;;9.00;98.20;;;;;;5033297;28;20601;-72
2021/12/29 06:00:12;;;;;;;1.60;1.20;;;9.00;98.20;;;;;;5044566;28;20577;-71
2021/12/29 06:02:39;;;;;;;1.63;1.30;;;9.00;98.20;;;;;;5030126;28;20545;-71
2021/12/29 06:05:07;;;;;;;2.63;2.43;;;9.00;98.20;;;;;;5040024;28;20463;-71
2021/12/29 06:07:34;;;;;;;1.70;1.40;;;8.90;98.20;;;;;;5049311;28;20871;-71
2021/12/29 06:10:01;;;;;;;2.43;2.13;;;8.90;98.20;;;;;;5043059;28;20478;-72
2021/12/29 06:12:28;;;;;;;1.67;1.20;;;8.90;98.20;;;;;;5030318;28;20475;-71
2021/12/29 06:14:57;;;;;;;1.67;1.20;;;8.90;98.20;;;;;;5048165;28;20820;-71
2021/12/29 06:17:24;;;;;;;1.60;1.20;;;8.90;98.20;;;;;;5029783;28;20490;-71
2021/12/29 06:19:50;;;;;;;1.67;1.20;;;8.90;98.20;;;;;;5042639;28;20486;-71
2021/12/29 06:22:17;;;;;;;1.70;1.40;;;8.90;98.20;;;;;;5042586;28;20485;-71
2021/12/29 06:24:44;;;;;;;1.63;1.20;;;8.90;98.20;;;;;;5045823;28;20957;-71
2021/12/29 06:27:11;;;;;;;1.63;1.30;;;8.90;98.20;;;;;;5021958;28;20486;-72
2021/12/29 06:29:38;;;;;;;1.67;1.20;;;8.90;98.20;;;;;;5035463;28;20521;-71
2021/12/29 06:32:07;;;;;;;1.70;1.30;;;8.90;98.20;;;;;;5028589;28;21032;-72
2021/12/29 06:34:35;;;;;;;1.70;1.37;;;8.90;98.20;;;;;;5040475;28;20996;-72
2021/12/29 06:37:08;;;;;;;1.70;1.30;;;8.90;98.20;;;;;;5028863;28;20486;-72
2021/12/29 06:39:35;;;;;;;1.70;1.37;;;8.90;98.20;;;;;;5033979;28;20933;-71
2021/12/29 06:42:03;;;;;;;1.70;1.30;;;8.90;98.20;;;;;;5032140;28;20483;-71
2021/12/29 06:44:30;;;;;;;1.63;1.23;;;8.90;98.20;;;;;;5035441;28;20498;-71
2021/12/29 06:46:56;;;;;;;1.60;1.20;;;8.90;98.20;;;;;;5042593;28;20488;-71
2021/12/29 06:49:25;;;;;;;1.60;1.10;;;8.90;98.20;;;;;;5048058;28;20958;-71
2021/12/29 06:51:52;;;;;;;1.60;1.20;;;8.90;98.20;;;;;;5032936;28;20924;-72
2021/12/29 06:54:19;;;;;;;1.67;1.30;;;8.90;98.20;;;;;;5042217;28;20494;-71
2021/12/29 06:56:46;;;;;;;1.63;1.20;;;8.90;98.20;;;;;;5040930;28;21200;-72
2021/12/29 06:59:13;;;;;;;1.70;1.37;;;8.90;98.20;;;;;;5047226;28;20475;-70
2021/12/29 07:01:40;;;;;;;1.67;1.20;;;8.90;98.20;;;;;;5033700;28;20510;-70
2021/12/29 07:04:07;;;;;;;1.60;1.20;;;8.90;98.20;;;;;;5038869;28;20468;-71
2021/12/29 07:06:35;;;;;;;1.67;1.20;;;8.90;98.20;;;;;;5029670;28;20561;-71
2021/12/29 07:09:02;;;;;;;1.70;1.50;;;8.90;98.20;;;;;;5035916;28;20965;-71
2021/12/29 07:11:29;;;;;;;1.60;1.20;;;8.90;98.20;;;;;;5035705;28;20484;-71
2021/12/29 07:13:58;;;;;;;1.60;1.20;;;8.90;98.20;;;;;;5050265;28;20466;-71
2021/12/29 07:16:24;;;;;;;1.70;1.40;;;8.90;98.20;;;;;;5035904;28;20573;-71
2021/12/29 07:18:52;;;;;;;1.70;1.30;;;8.90;98.20;;;;;;5053605;28;21027;-71
2021/12/29 07:21:19;;;;;;;1.60;1.20;;;9.00;98.20;;;;;;5030378;28;20491;-71
2021/12/29 07:23:47;;;;;;;1.70;1.27;;;8.90;98.20;;;;;;5042655;28;20462;-71
2021/12/29 07:26:15;;;;;;;1.70;1.30;;;8.90;98.20;;;;;;5029605;28;21004;-71
2021/12/29 07:28:42;;;;;;;1.70;1.50;;;8.90;98.20;;;;;;5036959;28;21041;-74
2021/12/29 07:31:09;;;;;;;1.70;1.30;;;8.90;98.20;;;;;;5031788;28;21068;-72
2021/12/29 07:33:35;;;;;;;1.63;1.20;;;8.90;98.20;;;;;;5053469;28;20537;-72
2021/12/29 07:36:03;;;;;;;1.67;1.30;;;8.90;98.20;;;;;;5031125;28;20568;-72
2021/12/29 07:38:29;;;;;;;1.60;1.20;;;8.90;98.20;;;;;;5044167;28;20455;-71
2021/12/29 07:40:58;;;;;;;1.70;1.20;;;8.90;98.20;;;;;;5038157;28;20940;-70
2021/12/29 07:43:25;;;;;;;1.67;1.20;;;8.90;98.20;;;;;;5042339;28;20463;-70
2021/12/29 07:45:54;;;;;;;1.70;1.30;;;8.90;98.20;;;;;;5037635;28;20485;-70
2021/12/29 07:48:26;;;;;;;1.70;1.30;;;8.90;98.20;;;;;;5060447;28;20467;-70
2021/12/29 07:50:53;;;;;;;1.70;1.40;;;8.90;98.20;;;;;;5036334;28;20589;-70
2021/12/29 07:53:21;;;;;;;1.70;1.30;;;8.90;98.20;;;;;;5060486;28;21027;-71
2021/12/29 07:55:48;;;;;;;1.70;1.30;;;8.90;98.20;;;;;;5039676;28;20494;-72
2021/12/29 07:58:17;;;;;;;1.70;1.37;;;8.90;98.20;;;;;;5059591;28;20568;-70
2021/12/29 08:00:44;;;;;;;1.63;1.20;;;8.90;98.20;;;;;;5046259;28;20486;-70
2021/12/29 08:03:12;;;;;;;1.67;1.23;;;8.90;98.20;;;;;;5029537;28;20478;-70
2021/12/29 08:05:39;;;;;;;1.60;1.20;;;8.90;98.20;;;;;;5048929;28;20469;-70
2021/12/29 08:08:06;;;;;;;1.60;1.20;;;8.90;98.20;;;;;;5036239;28;20481;-71
2021/12/29 08:10:34;;;;;;;1.60;1.17;;;8.90;98.20;;;;;;5046004;28;20583;-70
2021/12/29 08:13:01;;;;;;;2.07;1.87;;;8.90;98.20;;;;;;5032964;28;20486;-71
2021/12/29 08:15:32;;;;;;;1.63;1.20;;;8.90;98.20;;;;;;5046432;28;20558;-71
2021/12/29 08:17:59;;;;;;;1.63;1.20;;;8.90;98.20;;;;;;5031274;28;20513;-71
2021/12/29 08:20:26;;;;;;;1.60;1.20;;;8.90;98.20;;;;;;5047998;28;20489;-71
2021/12/29 08:22:53;;;;;;;1.63;1.20;;;8.90;98.20;;;;;;5036616;28;20486;-71
2021/12/29 08:25:21;;;;;;;2.13;1.93;;;9.00;98.20;;;;;;5044553;28;20455;-71
2021/12/29 08:27:48;;;;;;;1.60;1.20;;;9.00;98.20;;;;;;5031912;28;20998;-71
2021/12/29 08:30:15;;;;;;;1.63;1.23;;;9.00;98.20;;;;;;5045686;28;20485;-70
2021/12/29 08:32:44;;;;;;;1.70;1.33;;;9.00;98.20;;;;;;5047869;28;20561;-71
2021/12/29 08:35:11;;;;;;;1.70;1.40;;;9.00;98.20;;;;;;5044373;28;20792;-71
2021/12/29 08:37:39;;;;;;;1.60;1.20;;;9.00;98.20;;;;;;5052125;28;20488;-71
2021/12/29 08:40:10;;;;;;;1.70;1.30;;;9.10;98.20;;;;;;5048553;28;20935;-71
2021/12/29 08:42:39;;;;;;;1.70;1.30;;;9.10;98.20;;;;;;5048734;28;20483;-71
2021/12/29 08:45:07;;;;;;;1.60;1.10;;;9.10;98.20;;;;;;5042035;28;20469;-71
2021/12/29 08:47:34;;;;;;;1.70;1.30;;;9.10;98.20;;;;;;5049902;28;20501;-71
2021/12/29 08:50:04;;;;;;;1.60;1.10;;;9.10;98.20;;;;;;5045376;28;20509;-71
2021/12/29 08:52:31;;;;;;;1.60;1.20;;;9.20;98.20;;;;;;5048622;28;20623;-72
2021/12/29 08:54:58;;;;;;;1.70;1.20;;;9.20;98.20;;;;;;5046200;28;20492;-71
2021/12/29 08:57:24;;;;;;;1.70;1.30;;;9.20;98.20;;;;;;5045675;28;20484;-71
2021/12/29 08:59:51;;;;;;;1.60;1.20;;;9.20;98.20;;;;;;5044305;28;20567;-71
2021/12/29 09:02:18;;;;;;;1.60;1.20;;;9.30;98.20;;;;;;5045958;28;20834;-71
2021/12/29 09:04:45;;;;;;;1.60;1.20;;;9.30;98.20;;;;;;5046395;28;20489;-71
2021/12/29 09:07:14;;;;;;;1.60;1.20;;;9.30;98.20;;;;;;5047922;28;20481;-71
2021/12/29 09:09:41;;;;;;;1.93;1.57;;;9.30;98.20;;;;;;5048749;28;20462;-71
2021/12/29 09:12:09;;;;;;;1.60;1.10;;;9.30;98.20;;;;;;5044873;28;21060;-71
2021/12/29 09:14:35;;;;;;;1.70;1.20;;;9.40;98.20;;;;;;5047505;28;20560;-71
2021/12/29 09:17:03;;;;;;;1.67;1.23;;;9.40;98.20;;;;;;5032494;28;20576;-71
2021/12/29 09:19:33;;;;;;;1.70;1.23;;;9.40;98.20;;;;;;5041367;28;20489;-71
2021/12/29 09:22:00;;;;;;;1.70;1.33;;;9.40;98.20;;;;;;5044982;28;21008;-71
2021/12/29 09:24:29;;;;;;;1.70;1.30;;;9.40;98.20;;;;;;5048665;28;20563;-71
2021/12/29 09:26:56;;;;;;;1.70;1.30;;;9.50;98.20;;;;;;5040962;28;20515;-71
2021/12/29 09:29:23;;;;;;;1.60;1.20;;;9.50;98.20;;;;;;5050423;28;20473;-71
2021/12/29 09:31:50;;;;;;;1.70;1.20;;;9.50;98.20;;;;;;5033877;28;20578;-71
2021/12/29 09:34:17;;;;;;;1.67;1.20;;;9.60;98.20;;;;;;5052639;28;21069;-71
2021/12/29 09:36:45;;;;;;;1.63;1.20;;;9.60;98.20;;;;;;5037331;28;20478;-71
2021/12/29 09:39:12;;;;;;;1.70;1.20;;;9.70;98.20;;;;;;5051209;28;20499;-71
2021/12/29 09:41:40;;;;;;;1.67;1.10;;;9.70;98.20;;;;;;5036109;28;20588;-71
2021/12/29 09:44:09;;;;;;;1.70;1.33;;;9.80;98.20;;;;;;5046652;28;20462;-71
2021/12/29 09:46:37;;;;;;;1.63;1.20;;;9.90;98.20;;;;;;5038234;28;20514;-72
2021/12/29 09:49:04;;;;;;;1.67;1.30;;;9.90;98.20;;;;;;5049092;28;20963;-72
2021/12/29 09:51:31;;;;;;;1.60;1.20;;;9.90;98.20;;;;;;5040045;28;20922;-74
2021/12/29 09:53:59;;;;;;;1.60;1.20;;;9.90;98.20;;;;;;5056425;28;20496;-73
2021/12/29 09:56:27;;;;;;;1.63;1.10;;;10.00;98.20;;;;;;5038597;28;20477;-73
2021/12/29 09:58:56;;;;;;;1.60;1.10;;;10.00;98.20;;;;;;5054758;28;20496;-75
2021/12/29 10:01:26;;;;;;;1.70;1.30;;;10.10;98.20;;;;;;5032602;28;20771;-73
2021/12/29 10:03:53;;;;;;;1.70;1.20;;;10.10;98.20;;;;;;5032377;28;20497;-73
2021/12/29 10:06:20;;;;;;;1.60;1.10;;;10.20;98.20;;;;;;5034468;28;20494;-76
2021/12/29 10:08:49;;;;;;;1.70;1.20;;;10.30;98.20;;;;;;5045314;28;20470;-73
2021/12/29 10:11:19;;;;;;;1.63;1.20;;;10.30;98.20;;;;;;5029048;28;20513;-72
2021/12/29 10:13:49;;;;;;;1.63;1.10;;;10.40;98.20;;;;;;5051958;28;20494;-72
2021/12/29 10:16:21;;;;;;;1.70;1.30;;;10.40;98.20;;;;;;5025374;28;20854;-73
2021/12/29 10:18:53;;;;;;;1.70;1.20;;;10.40;98.20;;;;;;5037150;28;20485;-72
2021/12/29 10:21:25;;;;;;;1.70;1.30;;;10.50;98.20;;;;;;5034221;28;20875;-73
2021/12/29 10:23:55;;;;;;;1.67;1.17;;;10.40;98.20;;;;;;5050724;28;20472;-71
2021/12/29 10:26:24;;;;;;;1.70;1.20;;;10.40;98.20;;;;;;5030043;28;20583;-71
2021/12/29 10:28:53;;;;;;;1.70;1.20;;;10.40;98.20;;;;;;5033786;28;20459;-71
2021/12/29 10:31:25;;;;;;;1.70;1.40;;;10.40;98.20;;;;;;5025492;28;20574;-71
2021/12/29 10:33:54;;;;;;;1.70;1.20;;;10.40;98.20;;;;;;5038740;28;20899;-72
2021/12/29 10:36:24;;;;;;;1.60;1.10;;;10.40;98.20;;;;;;5036922;28;20568;-71
2021/12/29 10:38:56;;;;;;;1.70;1.20;;;10.40;98.20;;;;;;5049917;28;20777;-71
2021/12/29 10:41:23;;;;;;;1.67;1.20;;;10.40;98.20;;;;;;5029175;28;20810;-71
2021/12/29 10:43:53;;;;;;;1.70;1.20;;;10.40;98.20;;;;;;5049216;28;20839;-70
2021/12/29 10:46:23;;;;;;;1.70;1.20;;;10.40;98.20;;;;;;5023122;28;20479;-71
2021/12/29 10:48:55;;;;;;;1.70;1.27;;;10.40;98.20;;;;;;5017425;28;20555;-71
2021/12/29 10:51:29;;;;;;;1.67;1.10;;;10.40;98.20;;;;;;5012934;28;20488;-71
2021/12/29 10:54:08;;;;;;;1.63;1.10;;;10.40;98.20;;;;;;5032314;28;20582;-71
2021/12/29 10:56:38;;;;;;;1.63;1.10;;;10.40;98.20;;;;;;5015509;28;20817;-71
2021/12/29 10:59:21;;;;;;;1.60;1.00;;;10.30;98.20;;;;;;5027909;28;20467;-71
2021/12/29 11:01:50;;;;;;;1.60;1.10;;;10.30;98.20;;;;;;5010766;28;20857;-71
2021/12/29 11:04:19;;;;;;;1.60;1.10;;;10.40;98.20;;;;;;5024881;28;20864;-71
2021/12/29 11:06:49;;;;;;;1.60;1.10;;;10.40;98.20;;;;;;5012279;28;20483;-71
2021/12/29 11:09:25;;;;;;;1.63;1.20;;;10.40;98.20;;;;;;5022145;28;20492;-71
2021/12/29 11:11:52;;;;;;;1.63;1.10;;;10.50;98.20;;;;;;5013122;28;20495;-70
2021/12/29 11:14:23;;;;;;;1.60;1.10;;;10.50;98.20;;;;;;5024484;28;20559;-71
2021/12/29 11:17:05;;;;;;;1.67;1.20;;;10.60;98.20;;;;;;5013617;28;20508;-71
2021/12/29 11:19:32;;;;;;;1.70;1.20;;;10.70;98.20;;;;;;5020492;28;20476;-71
2021/12/29 11:22:13;;;;;;;1.63;1.10;;;10.70;98.20;;;;;;5018259;28;20482;-71
2021/12/29 11:24:42;;;;;;;1.70;1.10;;;10.80;98.20;;;;;;5022690;28;20979;-72
2021/12/29 11:27:12;;;;;;;1.60;1.10;;;10.90;98.20;;;;;;5013860;28;20486;-71
2021/12/29 11:29:53;;;;;;;1.60;1.10;;;10.90;98.20;;;;;;5021505;28;20459;-72
2021/12/29 11:32:25;;;;;;;1.63;1.10;;;11.00;98.20;;;;;;5019382;28;20551;-72
2021/12/29 11:35:09;;;;;;;1.63;1.13;;;11.00;98.20;;;;;;5020076;28;20460;-72
2021/12/29 11:37:37;;;;;;;1.70;1.20;;;11.00;98.20;;;;;;5020476;28;21084;-72
2021/12/29 11:40:06;;;;;;;1.60;1.10;;;11.00;98.20;;;;;;5022357;28;20491;-72
2021/12/29 11:42:33;;;;;;;1.70;1.30;;;11.00;98.20;;;;;;5018186;28;20858;-72
2021/12/29 11:45:00;;;;;;;1.67;1.20;;;11.00;98.20;;;;;;5021049;28;20475;-72
2021/12/29 11:47:29;;;;;;;1.63;1.10;;;11.00;98.20;;;;;;5024248;28;20930;-72
2021/12/29 11:49:56;;;;;;;1.60;1.10;;;11.10;98.20;;;;;;5022424;28;20940;-72
2021/12/29 11:52:38;;;;;;;1.60;1.10;;;11.10;98.20;;;;;;5014490;28;20688;-72
2021/12/29 11:55:10;;;;;;;1.67;1.20;;;11.10;98.20;;;;;;5022023;28;20555;-72
2021/12/29 11:57:38;;;;;;;1.67;1.20;;;11.10;98.20;;;;;;5016898;28;20613;-72
2021/12/29 12:00:11;;;;;;;1.70;1.10;;;11.20;98.20;;;;;;5020456;28;20483;-72
2021/12/29 12:02:40;;;;;;;1.67;1.20;;;11.20;98.20;;;;;;5017461;28;20478;-72
2021/12/29 12:05:10;;;;;;;1.70;1.10;;;11.20;98.20;;;;;;5022909;28;20846;-72
2021/12/29 12:07:38;;;;;;;1.60;1.00;;;11.20;98.20;;;;;;5024730;28;20569;-72
2021/12/29 12:10:11;;;;;;;1.67;1.17;;;11.20;98.20;;;;;;5021463;28;20569;-72
2021/12/29 12:12:41;;;;;;;1.70;1.20;;;11.20;98.20;;;;;;5014679;28;20482;-72
2021/12/29 12:15:11;;;;;;;1.70;1.10;;;11.20;98.20;;;;;;5019879;28;20469;-72
2021/12/29 12:17:41;;;;;;;1.67;1.10;;;11.10;98.20;;;;;;5024516;28;20894;-72
2021/12/29 12:20:11;;;;;;;1.67;1.17;;;11.10;98.20;;;;;;5020382;28;20494;-72
2021/12/29 12:22:46;;;;;;;1.63;1.10;;;11.10;98.20;;;;;;5017218;28;20849;-72
2021/12/29 12:25:18;;;;;;;1.67;1.10;;;11.10;98.20;;;;;;5023958;28;20470;-72
2021/12/29 12:27:48;;;;;;;1.60;1.10;;;11.10;98.20;;;;;;5025264;28;20482;-72
2021/12/29 12:30:18;;;;;;;1.70;1.20;;;11.00;98.20;;;;;;5025083;28;20482;-72
2021/12/29 12:32:49;;;;;;;1.60;1.07;;;11.00;98.20;;;;;;5028437;28;20575;-72
2021/12/29 12:35:29;;;;;;;1.60;1.10;;;11.00;98.20;;;;;;5025837;28;20471;-72
2021/12/29 12:37:56;;;;;;;1.60;1.10;;;11.00;98.20;;;;;;5022147;28;20989;-72
2021/12/29 12:40:25;;;;;;;1.60;1.10;;;10.90;98.20;;;;;;5024469;28;20491;-72
2021/12/29 12:43:01;;;;;;;1.70;1.20;;;10.90;98.20;;;;;;5020787;28;20478;-72
2021/12/29 12:45:33;;;;;;;1.70;1.20;;;10.90;98.20;;;;;;5024371;28;20462;-72
2021/12/29 12:48:08;;;;;;;1.70;1.20;;;10.90;98.20;;;;;;5019968;28;20510;-72
2021/12/29 12:50:38;;;;;;;1.70;1.20;;;10.80;98.20;;;;;;5019700;28;21394;-72
2021/12/29 12:53:05;;;;;;;1.70;1.23;;;10.80;98.20;;;;;;5029166;28;20482;-72
2021/12/29 12:55:45;;;;;;;1.70;1.27;;;10.80;98.20;;;;;;5024851;28;20969;-72
2021/12/29 12:58:14;;;;;;;1.60;1.10;;;10.70;98.20;;;;;;5017381;28;20487;-72
2021/12/29 13:00:45;;;;;;;1.60;1.10;;;10.70;98.20;;;;;;5022324;28;20506;-72
2021/12/29 13:03:17;;;;;;;1.60;1.10;;;10.70;98.20;;;;;;5041487;28;20571;-72